createdAt,value
2023-01-09T00:00:51.881Z,97465.06
2023-01-09T00:03:53.771Z,97433.75
2023-01-09T00:06:59.699Z,97431.50
2023-01-09T00:10:01.422Z,97435.72
2023-01-09T00:13:03.179Z,97436.69
2023-01-09T00:16:06.152Z,97447.09
2023-01-09T00:19:09.678Z,97442.75
2023-01-09T00:22:12.267Z,97444.31
2023-01-09T00:25:14.809Z,97417.72
2023-01-09T00:28:19.532Z,97427.41
2023-01-09T00:31:21.914Z,97426.56
2023-01-09T00:34:23.790Z,97411.88
2023-01-09T00:37:25.456Z,97403.31
2023-01-09T00:40:27.205Z,97407.66
2023-01-09T00:43:33.600Z,97405.91
2023-01-09T00:46:41.479Z,97404.41
2023-01-09T00:49:45.600Z,97404.78
2023-01-09T00:52:48.837Z,97391.94
2023-01-09T00:55:51.570Z,97414.41
2023-01-09T00:58:53.666Z,97415.06
2023-01-09T01:01:56.302Z,97416.88
2023-01-09T01:05:17.935Z,97431.91
2023-01-09T01:08:22.408Z,97444.94
2023-01-09T01:11:29.025Z,97438.09
2023-01-09T01:14:30.633Z,97449.50
2023-01-09T01:17:35.342Z,97432.69
2023-01-09T01:20:43.141Z,97443.81
2023-01-09T01:23:45.132Z,97428.81
2023-01-09T01:26:47.475Z,97420.59
2023-01-09T01:29:49.197Z,97429.16
2023-01-09T01:32:50.911Z,97426.69
2023-01-09T01:36:03.658Z,97418.28
2023-01-09T01:39:08.368Z,97421.31
2023-01-09T01:42:14.365Z,97411.47
2023-01-09T01:45:19.766Z,97436.97
2023-01-09T01:48:30.590Z,97451.13
2023-01-09T01:51:37.532Z,97448.97
2023-01-09T01:54:39.703Z,97439.75
2023-01-09T01:57:44.418Z,97433.88
2023-01-09T02:00:51.912Z,97436.03
2023-01-09T02:03:57.407Z,97469.19
2023-01-09T02:07:03.033Z,97456.09
2023-01-09T02:10:06.409Z,97464.88
2023-01-09T02:13:08.961Z,97471.19
2023-01-09T02:16:30.681Z,97476.91
2023-01-09T02:19:58.919Z,97486.09
2023-01-09T02:23:13.268Z,97488.78
2023-01-09T02:26:34.675Z,97492.63
2023-01-09T02:30:10.701Z,97522.09
2023-01-09T02:33:53.609Z,97513.47
2023-01-09T02:37:20.359Z,97527.25
2023-01-09T02:40:35.275Z,97532.53
2023-01-09T02:43:40.214Z,97531.16
2023-01-09T02:46:41.893Z,97556.22
2023-01-09T02:50:02.083Z,97562.03
2023-01-09T02:53:39.258Z,97571.56
2023-01-09T02:56:53.035Z,97580.75
2023-01-09T02:59:55.901Z,97589.84
2023-01-09T03:03:31.417Z,97603.63
2023-01-09T03:07:04.047Z,97625.06
2023-01-09T03:10:20.621Z,97646.47
2023-01-09T03:13:25.278Z,97657.19
2023-01-09T03:16:32.972Z,97682.63
2023-01-09T03:19:36.374Z,97677.03
2023-01-09T03:22:52.047Z,97692.31
2023-01-09T03:25:56.027Z,97697.94
2023-01-09T03:28:59.990Z,97716.19
2023-01-09T03:32:02.355Z,97715.75
2023-01-09T03:35:06.253Z,97721.34
2023-01-09T03:38:09.216Z,97742.59
2023-01-09T03:41:11.359Z,97739.13
2023-01-09T03:44:14.200Z,97739.78
2023-01-09T03:47:15.862Z,97731.50
2023-01-09T03:50:26.622Z,97746.25
2023-01-09T03:53:29.208Z,97754.53
2023-01-09T03:56:31.069Z,97754.72
2023-01-09T03:59:43.166Z,97768.59
2023-01-09T04:02:46.545Z,97777.00
2023-01-09T04:05:50.184Z,97767.91
2023-01-09T04:09:02.824Z,97786.03
2023-01-09T04:12:04.944Z,97803.69
2023-01-09T04:15:07.249Z,97816.53
2023-01-09T04:18:09.363Z,97817.97
2023-01-09T04:21:11.041Z,97827.91
2023-01-09T04:24:12.771Z,97837.75
2023-01-09T04:27:14.430Z,97830.63
2023-01-09T04:30:17.491Z,97838.47
2023-01-09T04:33:19.101Z,97836.44
2023-01-09T04:36:24.779Z,97841.25
2023-01-09T04:39:28.147Z,97846.75
2023-01-09T04:42:31.043Z,97836.34
2023-01-09T04:45:32.929Z,97855.03
2023-01-09T04:48:34.552Z,97875.16
2023-01-09T04:51:36.350Z,97866.19
2023-01-09T04:54:39.637Z,97869.53
2023-01-09T04:57:41.231Z,97879.16
2023-01-09T05:00:42.861Z,97883.94
2023-01-09T05:03:46.517Z,97891.59
2023-01-09T05:06:55.331Z,97880.97
2023-01-09T05:10:03.829Z,97866.09
2023-01-09T05:13:06.315Z,97867.91
2023-01-09T05:16:13.659Z,97870.00
2023-01-09T05:19:15.319Z,97889.84
2023-01-09T05:22:19.196Z,97871.94
2023-01-09T05:25:22.692Z,97903.41
2023-01-09T05:28:32.331Z,97902.50
2023-01-09T05:31:34.823Z,97901.00
2023-01-09T05:34:37.527Z,97898.19
2023-01-09T05:37:40.000Z,97902.25
2023-01-09T05:40:41.876Z,97902.69
2023-01-09T05:43:43.521Z,97917.00
2023-01-09T05:46:45.217Z,97919.44
2023-01-09T05:49:47.850Z,97899.44
2023-01-09T05:52:49.545Z,97916.56
2023-01-09T05:55:51.297Z,97903.91
2023-01-09T05:58:52.985Z,97916.34
2023-01-09T06:01:54.655Z,97907.97
2023-01-09T06:04:56.335Z,97893.34
2023-01-09T06:07:58.128Z,97904.84
2023-01-09T06:11:01.839Z,97912.34
2023-01-09T06:14:06.497Z,97899.06
2023-01-09T06:17:10.137Z,97902.06
2023-01-09T06:20:12.505Z,97885.63
2023-01-09T06:23:14.251Z,97903.06
2023-01-09T06:26:16.090Z,97901.84
2023-01-09T06:29:17.970Z,97904.78
2023-01-09T06:32:21.937Z,97909.56
2023-01-09T06:35:26.440Z,97896.59
2023-01-09T06:38:29.518Z,97912.59
2023-01-09T06:41:31.228Z,97911.00
2023-01-09T06:44:36.940Z,97915.13
2023-01-09T06:47:39.283Z,97910.09
2023-01-09T06:50:41.061Z,97916.75
2023-01-09T06:53:42.625Z,97898.91
2023-01-09T06:56:44.259Z,97920.38
2023-01-09T06:59:45.900Z,97914.72
2023-01-09T07:02:47.656Z,97911.47
2023-01-09T07:05:49.845Z,97925.78
2023-01-09T07:08:51.484Z,97918.28
2023-01-09T07:11:53.123Z,97927.13
2023-01-09T07:14:56.781Z,97898.38
2023-01-09T07:17:59.310Z,97932.28
2023-01-09T07:21:00.896Z,97915.13
2023-01-09T07:24:02.536Z,97910.75
2023-01-09T07:27:04.261Z,97913.25
2023-01-09T07:30:06.809Z,97924.13
2023-01-09T07:33:08.549Z,97925.03
2023-01-09T07:36:10.848Z,97923.44
2023-01-09T07:39:13.716Z,97911.13
2023-01-09T07:42:15.578Z,97923.16
2023-01-09T07:45:17.445Z,97912.44
2023-01-09T07:48:19.272Z,97918.53
2023-01-09T07:51:20.904Z,97927.88
2023-01-09T07:54:22.715Z,97926.97
2023-01-09T07:57:35.752Z,97931.44
2023-01-09T08:00:40.728Z,97937.84
2023-01-09T08:03:42.435Z,97929.84
2023-01-09T08:06:44.054Z,97924.63
2023-01-09T08:09:45.901Z,97925.91
2023-01-09T08:12:48.674Z,97921.13
2023-01-09T08:15:50.547Z,97916.63
2023-01-09T08:18:52.547Z,97917.44
2023-01-09T08:21:54.202Z,97932.66
2023-01-09T08:24:55.875Z,97934.84
2023-01-09T08:27:57.567Z,97935.75
2023-01-09T08:30:59.202Z,97926.72
2023-01-09T08:34:00.919Z,97938.94
2023-01-09T08:37:02.642Z,97922.25
2023-01-09T08:40:04.906Z,97924.94
2023-01-09T08:43:25.305Z,97926.72
2023-01-09T08:46:45.700Z,97919.44
2023-01-09T08:49:47.406Z,97934.16
2023-01-09T08:52:49.248Z,97930.97
2023-01-09T08:55:51.325Z,97933.09
2023-01-09T08:58:53.005Z,97932.09
2023-01-09T09:01:54.614Z,97928.13
2023-01-09T09:04:56.472Z,97927.31
2023-01-09T09:07:59.068Z,97932.34
2023-01-09T09:11:01.308Z,97932.50
2023-01-09T09:14:26.301Z,97933.88
2023-01-09T09:17:28.972Z,97933.56
2023-01-09T09:20:36.731Z,97943.19
2023-01-09T09:23:38.348Z,97941.41
2023-01-09T09:26:40.005Z,97950.50
2023-01-09T09:29:41.656Z,97951.41
2023-01-09T09:32:43.343Z,97954.19
2023-01-09T09:35:45.076Z,97951.72
2023-01-09T09:38:47.186Z,97948.63
2023-01-09T09:42:27.366Z,97957.81
2023-01-09T09:45:41.031Z,97958.69
2023-01-09T09:48:55.283Z,97959.25
2023-01-09T09:52:08.558Z,97970.81
2023-01-09T09:55:27.453Z,97957.69
2023-01-09T09:59:04.258Z,97971.41
2023-01-09T10:02:09.052Z,97975.41
2023-01-09T10:05:27.894Z,97962.44
2023-01-09T10:08:44.720Z,97959.97
2023-01-09T10:12:24.677Z,97978.34
2023-01-09T10:15:38.631Z,97967.28
2023-01-09T10:18:52.081Z,97950.34
2023-01-09T10:25:19.520Z,97947.31
2023-01-09T10:28:58.817Z,97946.19
2023-01-09T10:32:18.746Z,97950.13
2023-01-09T10:35:42.793Z,97954.38
2023-01-09T10:38:55.479Z,97959.44
2023-01-09T10:41:57.110Z,97949.09
2023-01-09T10:45:01.692Z,97951.13
2023-01-09T10:48:25.915Z,97940.63
2023-01-09T10:51:50.009Z,97939.81
2023-01-09T10:54:56.539Z,97941.81
2023-01-09T10:57:59.276Z,97945.19
2023-01-09T11:01:03.120Z,97940.59
2023-01-09T11:04:31.013Z,97932.06
2023-01-09T11:07:37.546Z,97931.19
2023-01-09T11:10:52.409Z,97948.44
2023-01-09T11:14:22.512Z,97915.63
2023-01-09T11:17:27.569Z,97921.91
2023-01-09T11:20:30.336Z,97944.19
2023-01-09T11:23:34.961Z,97928.06
2023-01-09T11:26:36.658Z,97939.50
2023-01-09T11:29:39.049Z,97928.28
2023-01-09T11:32:41.109Z,97942.16
2023-01-09T11:35:57.307Z,97951.47
2023-01-09T11:39:00.995Z,97961.69
2023-01-09T11:42:05.810Z,97978.69
2023-01-09T11:45:31.213Z,97977.66
2023-01-09T11:48:57.255Z,97976.28
2023-01-09T11:52:04.977Z,97977.06
2023-01-09T11:55:14.272Z,97970.81
2023-01-09T11:58:18.902Z,97983.09
2023-01-09T12:01:45.170Z,97986.47
2023-01-09T12:04:54.457Z,97979.06
2023-01-09T12:08:12.173Z,97974.91
2023-01-09T12:11:13.810Z,97984.44
2023-01-09T12:14:39.480Z,97981.59
2023-01-09T12:18:11.674Z,97982.84
2023-01-09T12:21:49.100Z,97980.56
2023-01-09T12:24:53.571Z,97984.38
2023-01-09T12:28:00.767Z,97994.72
2023-01-09T12:31:02.335Z,97989.44
2023-01-09T12:34:24.706Z,97986.13
2023-01-09T12:37:46.059Z,98004.56
2023-01-09T12:40:53.636Z,98007.31
2023-01-09T12:44:14.198Z,98005.56
2023-01-09T12:47:48.450Z,98033.69
2023-01-09T12:51:11.008Z,98020.16
2023-01-09T12:54:23.696Z,98017.97
2023-01-09T12:57:34.627Z,98016.75
2023-01-09T13:00:51.442Z,98023.03
2023-01-09T13:04:12.713Z,98021.59
2023-01-09T13:07:21.445Z,98018.38
2023-01-09T13:10:33.815Z,98011.97
2023-01-09T13:13:45.635Z,98019.84
2023-01-09T13:16:52.423Z,98022.38
2023-01-09T13:19:54.267Z,98024.47
2023-01-09T13:22:56.607Z,98028.28
2023-01-09T13:26:02.467Z,98031.88
2023-01-09T13:29:16.324Z,98023.34
2023-01-09T13:32:33.270Z,98040.78
2023-01-09T13:35:46.969Z,98024.56
2023-01-09T13:38:49.247Z,98034.94
2023-01-09T13:42:17.047Z,98028.88
2023-01-09T13:45:18.567Z,98053.69
2023-01-09T13:48:28.293Z,98062.69
2023-01-09T13:51:42.103Z,98061.97
2023-01-09T13:54:55.597Z,98061.97
2023-01-09T13:58:06.519Z,98068.19
2023-01-09T14:01:40.906Z,98063.97
2023-01-09T14:04:46.212Z,98062.41
2023-01-09T14:07:50.443Z,98049.84
2023-01-09T14:10:57.719Z,98064.59
2023-01-09T14:14:04.042Z,98059.66
2023-01-09T14:17:17.269Z,98065.19
2023-01-09T14:20:30.842Z,98067.22
2023-01-09T14:24:02.715Z,98081.97
2023-01-09T14:27:44.552Z,98094.16
2023-01-09T14:30:55.131Z,98109.28
2023-01-09T14:34:31.949Z,98117.41
2023-01-09T14:37:38.401Z,98116.00
2023-01-09T14:40:48.929Z,98119.16
2023-01-09T14:44:04.205Z,98128.31
2023-01-09T14:47:16.936Z,98118.41
2023-01-09T14:50:34.649Z,98131.50
2023-01-09T14:53:39.325Z,98139.06
2023-01-09T14:56:47.348Z,98133.78
2023-01-09T15:00:00.023Z,98146.59
2023-01-09T15:03:03.268Z,98152.13
2023-01-09T15:06:06.377Z,98164.75
2023-01-09T15:09:17.016Z,98172.19
2023-01-09T15:12:23.095Z,98178.81
2023-01-09T15:15:25.541Z,98191.91
2023-01-09T15:18:31.411Z,98215.09
2023-01-09T15:21:33.525Z,98214.59
2023-01-09T15:24:35.159Z,98194.13
2023-01-09T15:27:47.689Z,98252.47
2023-01-09T15:31:14.188Z,98227.38
2023-01-09T15:34:19.934Z,98237.94
2023-01-09T15:37:24.587Z,98233.53
2023-01-09T15:40:33.062Z,98224.38
2023-01-09T15:43:38.666Z,98207.34
2023-01-09T15:46:40.609Z,98243.44
2023-01-09T15:49:42.918Z,98234.91
2023-01-09T15:52:45.028Z,98240.59
2023-01-09T15:56:04.752Z,98262.50
2023-01-09T15:59:27.259Z,98249.41
2023-01-09T16:02:47.770Z,98258.72
2023-01-09T16:06:05.537Z,98241.69
2023-01-09T16:09:16.849Z,98252.13
2023-01-09T16:12:25.812Z,98270.25
2023-01-09T16:15:32.630Z,98268.19
2023-01-09T16:18:37.461Z,98269.13
2023-01-09T16:21:39.131Z,98279.22
2023-01-09T16:24:42.030Z,98280.66
2023-01-09T16:27:43.644Z,98271.03
2023-01-09T16:30:56.034Z,98283.00
2023-01-09T16:34:06.515Z,98300.50
2023-01-09T16:37:11.146Z,98305.06
2023-01-09T16:40:17.103Z,98300.50
2023-01-09T16:43:18.694Z,98294.34
2023-01-09T16:46:21.533Z,98302.72
2023-01-09T16:49:27.101Z,98299.41
2023-01-09T16:52:29.467Z,98323.81
2023-01-09T16:55:31.392Z,98311.97
2023-01-09T16:58:35.802Z,98327.44
2023-01-09T17:01:37.573Z,98332.97
2023-01-09T17:04:39.167Z,98328.69
2023-01-09T17:07:40.844Z,98347.47
2023-01-09T17:10:42.478Z,98351.84
2023-01-09T17:13:44.337Z,98354.72
2023-01-09T17:16:46.776Z,98363.03
2023-01-09T17:19:49.086Z,98386.22
2023-01-09T17:22:50.676Z,98379.38
2023-01-09T17:26:15.715Z,98382.38
2023-01-09T17:29:17.453Z,98401.78
2023-01-09T17:32:19.337Z,98407.13
2023-01-09T17:35:21.013Z,98398.59
2023-01-09T17:38:22.594Z,98411.84
2023-01-09T17:41:26.598Z,98404.84
2023-01-09T17:44:28.245Z,98404.38
2023-01-09T17:47:29.873Z,98420.59
2023-01-09T17:50:34.663Z,98425.00
2023-01-09T17:53:36.495Z,98426.88
2023-01-09T17:56:43.218Z,98438.88
2023-01-09T17:59:45.141Z,98444.25
2023-01-09T18:02:46.933Z,98437.44
2023-01-09T18:05:48.989Z,98462.69
2023-01-09T18:08:50.680Z,98450.63
2023-01-09T18:11:52.322Z,98469.72
2023-01-09T18:14:54.103Z,98473.50
2023-01-09T18:17:55.898Z,98469.72
2023-01-09T18:20:57.636Z,98463.25
2023-01-09T18:24:01.368Z,98471.00
2023-01-09T18:27:03.018Z,98468.34
2023-01-09T18:30:06.243Z,98481.56
2023-01-09T18:33:07.931Z,98492.94
2023-01-09T18:36:10.435Z,98507.31
2023-01-09T18:39:12.296Z,98519.41
2023-01-09T18:42:13.965Z,98521.97
2023-01-09T18:45:15.617Z,98522.59
2023-01-09T18:48:17.259Z,98519.50
2023-01-09T18:51:19.596Z,98524.22
2023-01-09T18:54:21.297Z,98524.34
2023-01-09T18:57:22.929Z,98539.00
2023-01-09T19:00:24.597Z,98541.84
2023-01-09T19:03:26.225Z,98547.06
2023-01-09T19:06:29.695Z,98543.75
2023-01-09T19:09:31.268Z,98545.84
2023-01-09T19:12:33.014Z,98559.13
2023-01-09T19:15:34.825Z,98549.31
2023-01-09T19:18:39.324Z,98537.59
2023-01-09T19:21:40.994Z,98559.47
2023-01-09T19:24:43.028Z,98547.03
2023-01-09T19:27:44.623Z,98551.28
2023-01-09T19:30:46.690Z,98557.59
2023-01-09T19:33:48.676Z,98561.25
2023-01-09T19:36:51.979Z,98554.03
2023-01-09T19:39:53.595Z,98548.97
2023-01-09T19:42:56.377Z,98555.44
2023-01-09T19:45:58.165Z,98560.47
2023-01-09T19:49:04.506Z,98576.13
2023-01-09T19:52:06.284Z,98588.41
2023-01-09T19:55:11.111Z,98568.06
2023-01-09T19:58:12.866Z,98593.47
2023-01-09T20:01:17.533Z,98593.78
2023-01-09T20:04:20.108Z,98583.50
2023-01-09T20:07:21.782Z,98593.16
2023-01-09T20:10:23.595Z,98574.22
2023-01-09T20:13:25.425Z,98575.78
2023-01-09T20:16:30.118Z,98563.78
2023-01-09T20:19:32.931Z,98575.63
2023-01-09T20:22:34.755Z,98579.56
2023-01-09T20:25:36.500Z,98588.56
2023-01-09T20:28:38.355Z,98600.59
2023-01-09T20:31:40.064Z,98602.16
2023-01-09T20:34:44.967Z,98588.38
2023-01-09T20:37:46.791Z,98605.38
2023-01-09T20:40:48.503Z,98603.59
2023-01-09T20:43:55.832Z,98614.13
2023-01-09T20:46:57.724Z,98595.88
2023-01-09T20:49:59.500Z,98636.25
2023-01-09T20:53:01.094Z,98629.84
2023-01-09T20:56:05.528Z,98632.94
2023-01-09T20:59:11.832Z,98646.63
2023-01-09T21:02:14.880Z,98642.78
2023-01-09T21:05:16.503Z,98650.34
2023-01-09T21:08:18.140Z,98664.22
2023-01-09T21:11:25.148Z,98659.75
2023-01-09T21:14:26.839Z,98658.31
2023-01-09T21:17:29.058Z,98671.38
2023-01-09T21:20:30.882Z,98661.66
2023-01-09T21:23:33.010Z,98657.81
2023-01-09T21:26:34.677Z,98683.69
2023-01-09T21:29:36.291Z,98688.53
2023-01-09T21:32:38.203Z,98688.81
2023-01-09T21:35:43.894Z,98685.75
2023-01-09T21:38:47.339Z,98697.94
2023-01-09T21:42:07.729Z,98699.44
2023-01-09T21:45:36.375Z,98719.16
2023-01-09T21:48:38.180Z,98724.44
2023-01-09T21:51:41.212Z,98727.41
2023-01-09T21:54:42.915Z,98734.53
2023-01-09T21:57:44.545Z,98745.06
2023-01-09T22:00:46.371Z,98726.84
2023-01-09T22:03:48.174Z,98759.50
2023-01-09T22:06:50.245Z,98762.09
2023-01-09T22:09:51.956Z,98744.38
2023-01-09T22:13:12.245Z,98777.38
2023-01-09T22:16:14.071Z,98768.94
2023-01-09T22:19:18.086Z,98799.09
2023-01-09T22:22:19.731Z,98795.09
2023-01-09T22:25:22.816Z,98810.38
2023-01-09T22:28:24.559Z,98812.25
2023-01-09T22:31:28.469Z,98820.50
2023-01-09T22:34:31.916Z,98819.47
2023-01-09T22:37:34.303Z,98830.00
2023-01-09T22:40:37.720Z,98844.13
2023-01-09T22:43:39.412Z,98836.50
2023-01-09T22:46:41.084Z,98844.13
2023-01-09T22:49:52.306Z,98844.75
2023-01-09T22:52:54.867Z,98843.16
2023-01-09T22:56:01.380Z,98854.44
2023-01-09T22:59:03.219Z,98865.13
2023-01-09T23:02:05.066Z,98868.31
2023-01-09T23:05:06.990Z,98876.63
2023-01-09T23:08:11.840Z,98883.38
2023-01-09T23:11:16.768Z,98893.69
2023-01-09T23:14:18.542Z,98890.03
2023-01-09T23:17:23.174Z,98894.84
2023-01-09T23:20:24.835Z,98899.50
2023-01-09T23:23:28.223Z,98902.19
2023-01-09T23:26:29.843Z,98905.13
2023-01-09T23:29:32.244Z,98910.50
2023-01-09T23:32:33.930Z,98927.75
2023-01-09T23:35:35.724Z,98940.03
2023-01-09T23:38:39.032Z,98943.81
2023-01-09T23:42:00.375Z,98946.72
2023-01-09T23:45:02.167Z,98958.72
2023-01-09T23:48:05.875Z,98960.09
2023-01-09T23:51:07.579Z,98969.19
2023-01-09T23:54:09.216Z,98958.06
2023-01-09T23:57:11.807Z,98979.53
